Time;durP1;ratioP1;P1;durP2;ratioP2;P2;SDS_P1;SDS_P2;PMS_P1;PMS_P2;Temp;Humidity;BMP_temperature;BMP_pressure;BME280_temperature;BME280_humidity;BME280_pressure;Samples;Min_cycle;Max_cycle;Signal;HPM_P1;HPM_P2
2024/01/29 00:00:17;;;;;;;4.43;4.03;;;0.50;95.80;;;;;;5095425;28;20179;-80
2024/01/29 00:02:46;;;;;;;5.13;4.27;;;0.40;95.70;;;;;;5075375;28;20519;-79
2024/01/29 00:05:12;;;;;;;5.47;4.80;;;0.40;95.80;;;;;;5075838;28;20179;-79
2024/01/29 00:07:37;;;;;;;4.50;4.10;;;0.30;95.80;;;;;;5095713;28;20270;-81
2024/01/29 00:10:05;;;;;;;4.67;3.90;;;0.20;96.00;;;;;;5097197;28;20185;-79
2024/01/29 00:12:31;;;;;;;7.63;4.37;;;0.20;96.00;;;;;;5100340;28;20181;-79
2024/01/29 00:14:57;;;;;;;7.87;4.27;;;0.10;96.30;;;;;;5099860;28;20811;-79
2024/01/29 00:17:22;;;;;;;7.33;4.60;;;0.00;96.40;;;;;;5099034;28;20212;-81
2024/01/29 00:19:48;;;;;;;7.33;4.93;;;0.10;96.50;;;;;;5099088;28;20170;-80
2024/01/29 00:22:14;;;;;;;6.97;4.33;;;0.20;96.30;;;;;;5098247;28;20172;-81
2024/01/29 00:24:40;;;;;;;8.30;5.13;;;0.10;96.40;;;;;;5103580;28;20166;-79
2024/01/29 00:27:06;;;;;;;11.07;6.17;;;0.10;96.60;;;;;;5103917;28;20170;-82
2024/01/29 00:29:32;;;;;;;8.47;5.40;;;0.10;96.40;;;;;;5096527;28;20186;-78
2024/01/29 00:31:58;;;;;;;12.07;6.67;;;0.10;96.50;;;;;;5095360;28;20215;-80
2024/01/29 00:34:24;;;;;;;12.07;6.50;;;0.00;96.60;;;;;;5094470;28;20229;-79
2024/01/29 00:36:50;;;;;;;10.17;5.83;;;0.10;96.60;;;;;;5094161;28;20213;-81
2024/01/29 00:39:16;;;;;;;10.87;5.83;;;0.10;96.70;;;;;;5094426;28;20182;-79
2024/01/29 00:41:41;;;;;;;14.33;7.03;;;0.10;96.40;;;;;;5094276;28;20199;-77
2024/01/29 00:44:07;;;;;;;8.73;6.13;;;0.20;96.40;;;;;;5094318;28;20208;-79
2024/01/29 00:46:33;;;;;;;11.03;6.10;;;0.20;96.30;;;;;;5095127;28;20223;-78
2024/01/29 00:48:59;;;;;;;6.23;4.60;;;0.20;96.10;;;;;;5094717;28;20181;-80
2024/01/29 00:51:24;;;;;;;6.57;4.47;;;0.10;96.10;;;;;;5094587;28;20181;-77
2024/01/29 00:53:50;;;;;;;4.93;4.13;;;0.00;96.20;;;;;;5095090;28;20182;-80
2024/01/29 00:56:16;;;;;;;4.63;4.07;;;0.00;96.20;;;;;;5093915;28;20205;-81
2024/01/29 00:58:44;;;;;;;5.80;3.60;;;0.00;96.40;;;;;;5091580;28;20186;-81
2024/01/29 01:01:11;;;;;;;4.47;3.83;;;0.00;96.40;;;;;;5074457;28;20524;-80
2024/01/29 01:03:37;;;;;;;5.67;3.03;;;0.00;96.30;;;;;;5074872;28;20170;-80
2024/01/29 01:06:02;;;;;;;3.90;3.50;;;-0.10;96.50;;;;;;5074792;28;20688;-81
2024/01/29 01:08:28;;;;;;;6.33;3.90;;;-0.10;96.50;;;;;;5073207;28;20623;-80
2024/01/29 01:10:54;;;;;;;4.00;3.63;;;-0.20;96.60;;;;;;5074456;28;20183;-80
2024/01/29 01:13:20;;;;;;;8.00;4.27;;;-0.20;96.70;;;;;;5073945;28;20178;-81
2024/01/29 01:15:45;;;;;;;5.87;3.60;;;-0.30;96.80;;;;;;5073831;28;20236;-80
2024/01/29 01:18:11;;;;;;;4.77;3.77;;;-0.30;96.90;;;;;;5074161;28;20175;-78
2024/01/29 01:20:37;;;;;;;5.70;3.90;;;-0.30;96.90;;;;;;5074124;28;20182;-80
2024/01/29 01:23:03;;;;;;;4.70;3.50;;;-0.30;96.80;;;;;;5072418;28;20178;-79
2024/01/29 01:25:28;;;;;;;4.87;3.47;;;-0.30;96.80;;;;;;5073201;28;20206;-79
2024/01/29 01:27:54;;;;;;;5.60;3.90;;;-0.30;96.80;;;;;;5073851;28;20227;-79
2024/01/29 01:30:21;;;;;;;4.90;3.80;;;-0.30;96.80;;;;;;5073846;28;20178;-81
2024/01/29 01:32:48;;;;;;;5.17;4.00;;;-0.30;96.80;;;;;;5072146;28;20177;-81
2024/01/29 01:35:14;;;;;;;5.53;4.10;;;-0.30;96.80;;;;;;5073641;28;20578;-80
2024/01/29 01:37:40;;;;;;;5.17;3.67;;;-0.40;96.90;;;;;;5073493;28;20183;-82
2024/01/29 01:40:07;;;;;;;4.63;4.10;;;-0.40;97.10;;;;;;5073724;28;20257;-79
2024/01/29 01:42:33;;;;;;;5.10;3.70;;;-0.40;97.10;;;;;;5073407;28;20171;-78
2024/01/29 01:45:01;;;;;;;6.00;4.27;;;-0.30;97.10;;;;;;5073726;28;20221;-81
2024/01/29 01:47:27;;;;;;;6.13;3.50;;;-0.30;97.00;;;;;;5074439;28;20237;-80
2024/01/29 01:49:53;;;;;;;3.73;3.20;;;-0.30;96.80;;;;;;5073322;28;20700;-79
2024/01/29 01:52:20;;;;;;;3.37;3.03;;;-0.40;96.80;;;;;;5071227;28;20661;-79
2024/01/29 01:54:47;;;;;;;3.97;3.60;;;-0.40;96.80;;;;;;5072690;28;20169;-82
2024/01/29 01:57:13;;;;;;;7.33;4.00;;;-0.50;96.90;;;;;;5073199;28;20209;-80
2024/01/29 01:59:39;;;;;;;4.93;3.93;;;-0.50;97.10;;;;;;5073317;28;20183;-81
2024/01/29 02:02:07;;;;;;;6.40;3.77;;;-0.50;97.00;;;;;;5073155;28;20182;-79
2024/01/29 02:04:33;;;;;;;4.07;3.10;;;-0.40;96.90;;;;;;5073381;28;20632;-80
2024/01/29 02:06:59;;;;;;;3.73;3.43;;;-0.50;96.90;;;;;;5073701;28;20299;-78
2024/01/29 02:09:26;;;;;;;3.97;3.20;;;-0.50;96.90;;;;;;5073556;28;20209;-79
2024/01/29 02:11:51;;;;;;;5.27;3.27;;;-0.60;97.00;;;;;;5073328;28;20174;-77
2024/01/29 02:14:17;;;;;;;3.83;3.50;;;-0.60;97.20;;;;;;5083912;28;20196;-81
2024/01/29 02:16:43;;;;;;;5.30;3.50;;;-0.60;97.20;;;;;;5096921;28;20241;-79
2024/01/29 02:19:16;;;;;;;3.63;3.33;;;-0.60;97.10;;;;;;5095303;28;20177;-79
2024/01/29 02:21:42;;;;;;;5.27;3.40;;;-0.60;97.00;;;;;;5094879;28;20197;-79
2024/01/29 02:24:08;;;;;;;3.83;3.53;;;-0.60;97.10;;;;;;5092842;28;20189;-80
2024/01/29 02:26:34;;;;;;;5.20;3.33;;;-0.60;97.10;;;;;;5093487;28;20295;-79
2024/01/29 02:28:59;;;;;;;3.63;3.13;;;-0.60;97.30;;;;;;5093009;28;20174;-80
2024/01/29 02:31:26;;;;;;;3.73;3.10;;;-0.60;97.30;;;;;;5093316;28;20209;-81
2024/01/29 02:33:53;;;;;;;3.47;3.17;;;-0.60;97.30;;;;;;5093472;28;20176;-81
2024/01/29 02:36:19;;;;;;;3.70;3.40;;;-0.60;97.30;;;;;;5092934;28;20695;-79
2024/01/29 02:38:44;;;;;;;3.37;3.10;;;-0.60;97.20;;;;;;5092672;28;20201;-79
2024/01/29 02:41:10;;;;;;;5.33;3.53;;;-0.60;97.30;;;;;;5092589;28;20206;-82
2024/01/29 02:43:36;;;;;;;3.40;3.10;;;-0.60;97.40;;;;;;5092694;28;20194;-79
2024/01/29 02:46:02;;;;;;;4.77;3.60;;;-0.60;97.40;;;;;;5093498;28;20181;-80
2024/01/29 02:48:28;;;;;;;4.50;3.80;;;-0.70;97.40;;;;;;5093365;28;20212;-79
2024/01/29 02:50:53;;;;;;;4.87;3.53;;;-0.70;97.40;;;;;;5092468;28;20182;-77
2024/01/29 02:53:20;;;;;;;3.57;3.23;;;-0.80;97.50;;;;;;5092441;28;20694;-80
2024/01/29 02:55:46;;;;;;;5.90;3.43;;;-0.70;97.50;;;;;;5092395;28;20214;-80
2024/01/29 02:58:11;;;;;;;3.80;3.23;;;-0.70;97.60;;;;;;5092779;28;20172;-80
2024/01/29 03:00:37;;;;;;;5.67;3.30;;;-0.70;97.50;;;;;;5092758;28;20553;-76
2024/01/29 03:03:03;;;;;;;4.37;3.23;;;-0.70;97.50;;;;;;5092049;28;20258;-77
2024/01/29 03:05:29;;;;;;;4.77;3.23;;;-0.70;97.60;;;;;;5093111;28;20185;-77
2024/01/29 03:07:55;;;;;;;4.67;3.27;;;-0.70;97.60;;;;;;5101177;28;20260;-78
2024/01/29 03:10:21;;;;;;;3.50;3.03;;;-0.70;97.70;;;;;;5093005;28;20187;-79
2024/01/29 03:12:46;;;;;;;3.33;3.10;;;-0.70;97.70;;;;;;5094153;28;20594;-78
2024/01/29 03:15:13;;;;;;;5.10;3.00;;;-0.70;97.70;;;;;;5092814;28;20312;-78
2024/01/29 03:17:38;;;;;;;2.97;2.77;;;-0.70;97.50;;;;;;5092750;28;20622;-80
2024/01/29 03:20:05;;;;;;;3.57;3.00;;;-0.70;97.50;;;;;;5092081;28;20166;-79
2024/01/29 03:22:31;;;;;;;3.40;3.10;;;-0.70;97.50;;;;;;5092452;28;20178;-79
2024/01/29 03:24:56;;;;;;;4.17;3.07;;;-0.70;97.60;;;;;;5096621;28;20176;-81
2024/01/29 03:27:22;;;;;;;6.53;3.20;;;-0.80;97.60;;;;;;5096395;28;20212;-80
2024/01/29 03:29:48;;;;;;;3.10;2.80;;;-0.60;97.90;;;;;;5096057;28;20173;-79
2024/01/29 03:32:14;;;;;;;4.70;2.90;;;-0.80;97.90;;;;;;5096077;28;20184;-79
2024/01/29 03:34:42;;;;;;;3.10;2.80;;;-0.90;98.00;;;;;;5096685;28;20185;-81
2024/01/29 03:37:08;;;;;;;4.33;3.90;;;-0.90;98.00;;;;;;5095579;28;20720;-78
2024/01/29 03:39:34;;;;;;;5.73;3.40;;;-0.90;98.00;;;;;;5095804;28;20284;-80
2024/01/29 03:42:00;;;;;;;2.80;2.60;;;-0.90;98.20;;;;;;5095713;28;20507;-78
2024/01/29 03:44:25;;;;;;;5.10;3.30;;;-0.90;98.20;;;;;;5094730;28;20637;-79
2024/01/29 03:46:51;;;;;;;3.37;2.90;;;-0.90;98.30;;;;;;5095294;28;20182;-76
2024/01/29 03:49:17;;;;;;;5.03;3.50;;;-0.90;98.40;;;;;;5095654;28;20183;-78
2024/01/29 03:51:43;;;;;;;6.67;4.13;;;-1.00;98.50;;;;;;5095471;28;20178;-79
2024/01/29 03:54:08;;;;;;;4.93;4.00;;;-0.90;98.50;;;;;;5095109;28;20309;-79
2024/01/29 03:56:34;;;;;;;3.93;3.40;;;-1.00;98.70;;;;;;5094868;28;20201;-78
2024/01/29 03:59:00;;;;;;;5.03;3.67;;;-1.00;98.60;;;;;;5095034;28;20257;-77
2024/01/29 04:01:28;;;;;;;4.40;3.13;;;-1.00;98.50;;;;;;5093645;28;20188;-78
2024/01/29 04:03:54;;;;;;;3.80;3.47;;;-1.00;98.60;;;;;;5096270;28;20181;-77
2024/01/29 04:06:20;;;;;;;5.50;3.60;;;-1.00;98.60;;;;;;5096170;28;20189;-79
2024/01/29 04:08:45;;;;;;;3.80;3.40;;;-1.10;98.70;;;;;;5099589;28;20325;-77
2024/01/29 04:11:11;;;;;;;3.67;3.37;;;-1.10;98.90;;;;;;5098933;28;20179;-80
2024/01/29 04:13:39;;;;;;;5.90;3.83;;;-1.10;98.90;;;;;;5099557;28;20271;-80
2024/01/29 04:16:08;;;;;;;3.83;3.43;;;-1.10;98.80;;;;;;5100857;28;20232;-79
2024/01/29 04:18:33;;;;;;;5.33;3.23;;;-1.10;98.80;;;;;;5103013;28;20181;-81
2024/01/29 04:20:59;;;;;;;4.57;2.90;;;-1.20;98.70;;;;;;5104095;28;20275;-78
2024/01/29 04:23:25;;;;;;;2.73;2.53;;;-1.30;98.60;;;;;;5100547;28;20641;-79
2024/01/29 04:25:51;;;;;;;4.97;3.17;;;-1.20;98.60;;;;;;5096051;28;20187;-80
2024/01/29 04:28:16;;;;;;;3.53;2.90;;;-1.30;98.60;;;;;;5093507;28;20204;-81
2024/01/29 04:30:42;;;;;;;5.10;2.90;;;-1.30;98.80;;;;;;5095526;28;20610;-78
2024/01/29 04:33:08;;;;;;;4.17;3.10;;;-1.40;98.80;;;;;;5095191;28;20187;-79
2024/01/29 04:35:35;;;;;;;2.97;2.70;;;-1.40;98.90;;;;;;5094792;28;20722;-78
2024/01/29 04:38:01;;;;;;;2.83;2.63;;;-1.40;98.90;;;;;;5095056;28;20896;-80
2024/01/29 04:40:26;;;;;;;3.73;3.23;;;-1.50;99.00;;;;;;5093121;28;20231;-79
2024/01/29 04:42:52;;;;;;;4.27;2.87;;;-1.50;99.10;;;;;;5094414;28;20173;-81
2024/01/29 04:45:18;;;;;;;2.87;2.60;;;-1.50;99.20;;;;;;5092798;28;20258;-82
2024/01/29 04:47:44;;;;;;;5.37;3.30;;;-1.50;99.30;;;;;;5093998;28;20218;-81
2024/01/29 04:50:09;;;;;;;4.80;3.33;;;-1.50;99.20;;;;;;5093864;28;20185;-80
2024/01/29 04:52:35;;;;;;;4.70;2.93;;;-1.40;99.20;;;;;;5094134;28;20181;-81
2024/01/29 04:55:01;;;;;;;3.87;3.00;;;-1.40;99.20;;;;;;5096625;28;20177;-81
2024/01/29 04:57:27;;;;;;;4.50;3.10;;;-1.40;99.40;;;;;;5094179;28;20355;-80
2024/01/29 04:59:52;;;;;;;6.73;3.40;;;-1.40;99.50;;;;;;5094562;28;20174;-81
2024/01/29 05:02:18;;;;;;;3.40;3.03;;;-1.40;99.50;;;;;;5094147;28;20176;-80
2024/01/29 05:04:44;;;;;;;5.27;3.20;;;-1.40;99.50;;;;;;5094216;28;20183;-80
2024/01/29 05:07:10;;;;;;;3.93;3.00;;;-1.40;99.50;;;;;;5093931;28;20200;-80
2024/01/29 05:09:35;;;;;;;3.50;3.20;;;-1.40;99.70;;;;;;5092755;28;20223;-82
2024/01/29 05:12:01;;;;;;;6.53;3.40;;;-1.40;99.60;;;;;;5093307;28;20180;-80
2024/01/29 05:14:28;;;;;;;2.87;2.67;;;-1.40;99.60;;;;;;5092054;28;20199;-79
2024/01/29 05:16:53;;;;;;;3.07;2.77;;;-1.40;99.60;;;;;;5098177;28;20233;-80
2024/01/29 05:19:19;;;;;;;5.20;3.53;;;-1.30;99.60;;;;;;5097121;28;20176;-81
2024/01/29 05:21:47;;;;;;;3.70;3.40;;;-1.30;99.50;;;;;;5093537;28;20178;-80
2024/01/29 05:24:13;;;;;;;6.73;3.53;;;-1.30;99.60;;;;;;5093535;28;20574;-80
2024/01/29 05:26:39;;;;;;;8.20;4.20;;;-1.30;99.70;;;;;;5093420;28;20242;-82
2024/01/29 05:29:05;;;;;;;4.50;3.97;;;-1.30;99.80;;;;;;5093543;28;20183;-79
2024/01/29 05:31:30;;;;;;;7.33;4.40;;;-1.50;99.80;;;;;;5093886;28;20249;-80
2024/01/29 05:33:56;;;;;;;4.40;4.00;;;-1.40;99.90;;;;;;5093026;28;20174;-81
2024/01/29 05:36:22;;;;;;;5.80;4.40;;;-1.40;99.90;;;;;;5093260;28;20264;-77
2024/01/29 05:38:48;;;;;;;5.17;3.30;;;-1.30;99.80;;;;;;5091405;28;20787;-81
2024/01/29 05:41:13;;;;;;;4.17;3.37;;;-1.30;99.80;;;;;;5092937;28;20272;-80
2024/01/29 05:43:39;;;;;;;5.83;3.50;;;-1.40;99.60;;;;;;5093097;28;20529;-80
2024/01/29 05:46:05;;;;;;;5.07;4.10;;;-1.30;99.50;;;;;;5092312;28;20171;-79
2024/01/29 05:48:31;;;;;;;5.53;3.70;;;-1.40;99.60;;;;;;5092654;28;20323;-81
2024/01/29 05:50:56;;;;;;;6.43;3.77;;;-1.30;99.60;;;;;;5095871;28;20182;-80
2024/01/29 05:53:22;;;;;;;7.20;3.27;;;-1.30;99.60;;;;;;5097458;28;20170;-80
2024/01/29 05:55:48;;;;;;;5.77;3.60;;;-1.30;99.50;;;;;;5096545;28;20216;-78
2024/01/29 05:58:14;;;;;;;4.87;4.33;;;-1.30;99.40;;;;;;5095348;28;20537;-81
2024/01/29 06:00:40;;;;;;;5.60;4.07;;;-1.30;99.50;;;;;;5094387;28;20178;-81
2024/01/29 06:03:06;;;;;;;5.30;3.33;;;-1.30;99.60;;;;;;5091821;28;20629;-81
2024/01/29 06:05:32;;;;;;;6.50;4.10;;;-1.30;99.70;;;;;;5092796;28;20187;-79
2024/01/29 06:07:57;;;;;;;5.63;3.87;;;-1.30;99.70;;;;;;5095424;28;20185;-79
2024/01/29 06:10:23;;;;;;;4.93;3.70;;;-1.30;99.50;;;;;;5092628;28;20177;-79
2024/01/29 06:12:49;;;;;;;5.60;3.80;;;-1.30;99.60;;;;;;5092912;28;20173;-80
2024/01/29 06:15:15;;;;;;;10.03;5.30;;;-1.30;99.80;;;;;;5092382;28;20231;-79
2024/01/29 06:17:41;;;;;;;11.67;5.30;;;-1.30;99.60;;;;;;5092405;28;20162;-79
2024/01/29 06:20:07;;;;;;;13.10;6.07;;;-1.30;99.70;;;;;;5092328;28;20177;-79
2024/01/29 06:22:33;;;;;;;7.87;5.47;;;-1.50;99.70;;;;;;5092373;28;20253;-79
2024/01/29 06:24:59;;;;;;;7.30;5.07;;;-1.50;99.90;;;;;;5092286;28;20196;-79
2024/01/29 06:27:24;;;;;;;13.47;5.87;;;-1.50;99.90;;;;;;5092483;28;20786;-79
2024/01/29 06:29:50;;;;;;;8.87;6.67;;;-1.50;99.90;;;;;;5093150;28;20212;-80
2024/01/29 06:32:16;;;;;;;10.10;6.67;;;-1.50;99.90;;;;;;5093462;28;20178;-79
2024/01/29 06:34:42;;;;;;;10.17;6.77;;;-1.50;99.90;;;;;;5092324;28;20541;-79
2024/01/29 06:37:07;;;;;;;12.53;7.47;;;-1.50;99.90;;;;;;5091126;28;20675;-80
2024/01/29 06:39:33;;;;;;;14.43;7.00;;;-1.50;99.90;;;;;;5092737;28;20177;-81
2024/01/29 06:41:59;;;;;;;14.17;8.23;;;-1.40;99.90;;;;;;5092542;28;20533;-81
2024/01/29 06:44:25;;;;;;;17.23;7.87;;;-1.40;99.90;;;;;;5093138;28;20172;-80
2024/01/29 06:46:51;;;;;;;12.50;7.70;;;-1.40;99.90;;;;;;5093583;28;20176;-81
2024/01/29 06:49:30;;;;;;;15.30;8.57;;;-1.50;99.90;;;;;;5094096;28;20165;-81
2024/01/29 06:51:56;;;;;;;16.30;8.37;;;-1.50;99.90;;;;;;5093504;28;20181;-79
2024/01/29 06:54:22;;;;;;;10.13;6.97;;;-1.60;99.90;;;;;;5093698;28;20215;-78
2024/01/29 06:56:49;;;;;;;12.03;7.63;;;-1.60;99.90;;;;;;5092626;28;21015;-78
2024/01/29 06:59:15;;;;;;;12.90;5.67;;;-1.50;99.90;;;;;;5094576;28;20252;-80
2024/01/29 07:01:40;;;;;;;12.80;5.57;;;-1.50;99.90;;;;;;5097200;28;20309;-80
2024/01/29 07:04:06;;;;;;;8.83;6.33;;;-1.50;99.90;;;;;;5096605;28;20226;-78
2024/01/29 07:06:32;;;;;;;5.63;4.70;;;-1.40;99.90;;;;;;5096514;28;20170;-77
2024/01/29 07:08:58;;;;;;;9.30;4.70;;;-1.10;99.90;;;;;;5096968;28;20188;-79
2024/01/29 07:11:24;;;;;;;8.07;4.43;;;-0.80;99.90;;;;;;5098072;28;20247;-81
2024/01/29 07:13:50;;;;;;;6.83;4.80;;;-0.60;99.90;;;;;;5100333;28;20183;-82
2024/01/29 07:16:16;;;;;;;6.10;4.27;;;-0.60;99.90;;;;;;5094769;28;20282;-79
2024/01/29 07:18:42;;;;;;;8.23;4.60;;;-0.60;99.90;;;;;;5096074;28;20261;-81
2024/01/29 07:21:11;;;;;;;5.23;4.57;;;-0.80;99.90;;;;;;5098711;28;20209;-79
2024/01/29 07:23:36;;;;;;;6.47;4.13;;;-1.00;99.90;;;;;;5094712;28;20217;-81
2024/01/29 07:26:02;;;;;;;7.47;4.57;;;-1.00;99.90;;;;;;5094709;28;20202;-78
2024/01/29 07:28:28;;;;;;;6.03;4.50;;;-0.90;99.90;;;;;;5094679;28;20728;-79
2024/01/29 07:30:54;;;;;;;6.50;4.33;;;-0.90;99.90;;;;;;5096234;28;20293;-80
2024/01/29 07:33:20;;;;;;;8.27;4.57;;;-0.90;99.90;;;;;;5095617;28;20181;-80
2024/01/29 07:35:48;;;;;;;6.70;4.30;;;-1.00;99.90;;;;;;5095535;28;20226;-79
2024/01/29 07:38:14;;;;;;;9.70;5.00;;;-0.90;99.90;;;;;;5095309;28;20222;-78
2024/01/29 07:40:40;;;;;;;5.60;4.27;;;-0.80;99.90;;;;;;5095733;28;20198;-79
2024/01/29 07:43:06;;;;;;;6.13;5.07;;;-0.70;99.90;;;;;;5098140;28;20169;-80
2024/01/29 07:45:32;;;;;;;12.40;4.70;;;-0.60;99.90;;;;;;5097025;28;20174;-79
2024/01/29 07:47:59;;;;;;;20.07;7.63;;;-0.70;99.90;;;;;;5095585;28;20511;-78
2024/01/29 07:50:25;;;;;;;13.20;7.43;;;-0.70;99.90;;;;;;5095772;28;20658;-78
2024/01/29 07:52:50;;;;;;;16.77;7.70;;;-0.70;99.90;;;;;;5094826;28;20259;-78
2024/01/29 07:55:17;;;;;;;21.20;8.33;;;-0.60;99.90;;;;;;5093511;28;20206;-79
2024/01/29 07:57:42;;;;;;;17.00;10.10;;;-0.50;99.90;;;;;;5094975;28;20628;-79
2024/01/29 08:00:09;;;;;;;18.03;8.97;;;-0.10;99.90;;;;;;5095007;28;20190;-78
2024/01/29 08:02:35;;;;;;;19.83;9.93;;;-0.40;99.90;;;;;;5094120;28;20859;-78
2024/01/29 08:05:00;;;;;;;15.63;9.00;;;-0.40;99.90;;;;;;5098458;28;20243;-79
2024/01/29 08:07:26;;;;;;;18.37;9.63;;;-0.50;99.90;;;;;;5097324;28;20664;-79
2024/01/29 08:09:52;;;;;;;15.67;9.33;;;-0.40;99.90;;;;;;5094289;28;20186;-79
2024/01/29 08:12:19;;;;;;;15.77;9.53;;;-0.40;99.90;;;;;;5095078;28;20184;-79
2024/01/29 08:14:47;;;;;;;19.53;9.67;;;-0.30;99.90;;;;;;5095596;28;20170;-79
2024/01/29 08:17:12;;;;;;;17.13;9.20;;;-0.20;99.90;;;;;;5095081;28;20317;-79
2024/01/29 08:19:38;;;;;;;19.93;9.70;;;0.00;99.90;;;;;;5096201;28;20221;-79
2024/01/29 08:22:04;;;;;;;16.97;9.27;;;-0.10;99.90;;;;;;5094154;28;20186;-79
2024/01/29 08:24:30;;;;;;;17.40;9.13;;;-0.10;99.90;;;;;;5093805;28;20189;-79
2024/01/29 08:26:55;;;;;;;17.23;9.00;;;0.00;99.90;;;;;;5095499;28;20186;-79
2024/01/29 08:29:21;;;;;;;15.77;9.07;;;0.10;99.90;;;;;;5095464;28;20537;-81
2024/01/29 08:31:48;;;;;;;21.30;9.20;;;0.10;99.90;;;;;;5095804;28;20608;-81
2024/01/29 08:34:13;;;;;;;17.83;9.23;;;0.10;99.90;;;;;;5096185;28;20170;-79
2024/01/29 08:36:39;;;;;;;18.80;9.20;;;0.30;99.90;;;;;;5095240;28;20205;-79
2024/01/29 08:39:05;;;;;;;16.97;8.83;;;0.40;99.90;;;;;;5095146;28;20254;-80
2024/01/29 08:41:30;;;;;;;15.00;8.97;;;0.30;99.90;;;;;;5095076;28;20194;-78
2024/01/29 08:43:56;;;;;;;22.63;9.63;;;0.40;99.90;;;;;;5095101;28;20178;-79
2024/01/29 08:46:22;;;;;;;18.57;8.97;;;0.50;99.90;;;;;;5095103;28;20177;-80
2024/01/29 08:48:48;;;;;;;16.47;9.20;;;0.50;99.90;;;;;;5095058;28;20173;-80
2024/01/29 08:51:15;;;;;;;19.57;8.97;;;0.60;99.90;;;;;;5094496;28;20181;-79
2024/01/29 08:53:40;;;;;;;17.37;9.43;;;0.70;99.90;;;;;;5094549;28;20242;-80
2024/01/29 08:56:07;;;;;;;14.23;8.97;;;0.70;99.90;;;;;;5094255;28;20603;-79
2024/01/29 08:58:34;;;;;;;13.20;7.93;;;0.70;99.90;;;;;;5092917;28;20743;-80
2024/01/29 09:00:59;;;;;;;16.43;9.47;;;0.90;99.90;;;;;;5094757;28;20251;-80
2024/01/29 09:03:27;;;;;;;14.43;8.87;;;1.00;99.90;;;;;;5093901;28;20312;-81
2024/01/29 09:05:53;;;;;;;15.50;9.47;;;1.10;99.90;;;;;;5094255;28;20560;-78
2024/01/29 09:08:19;;;;;;;16.30;9.00;;;1.20;99.80;;;;;;5094923;28;20178;-78
2024/01/29 09:10:45;;;;;;;13.53;8.27;;;1.20;99.70;;;;;;5094916;28;20182;-78
2024/01/29 09:13:11;;;;;;;17.60;9.00;;;1.30;99.50;;;;;;5092330;28;20174;-78
2024/01/29 09:15:38;;;;;;;14.93;9.00;;;1.40;99.40;;;;;;5093465;28;20275;-77
2024/01/29 09:18:04;;;;;;;14.40;8.80;;;1.50;99.30;;;;;;5092688;28;20533;-80
2024/01/29 09:20:30;;;;;;;13.10;8.37;;;1.50;99.10;;;;;;5093147;28;20166;-76
2024/01/29 09:22:55;;;;;;;21.07;9.40;;;1.70;99.00;;;;;;5093717;28;20996;-77
2024/01/29 09:25:21;;;;;;;18.47;9.17;;;1.80;98.80;;;;;;5094953;28;20175;-78
2024/01/29 09:27:47;;;;;;;14.33;8.97;;;1.80;98.80;;;;;;5093885;28;20216;-79
2024/01/29 09:30:13;;;;;;;15.90;9.13;;;1.90;98.70;;;;;;5094268;28;20262;-80
2024/01/29 09:32:38;;;;;;;16.47;8.40;;;1.90;98.60;;;;;;5094618;28;20175;-79
2024/01/29 09:35:05;;;;;;;15.53;9.37;;;1.90;98.70;;;;;;5098208;28;20208;-78
2024/01/29 09:37:30;;;;;;;19.33;8.60;;;2.00;98.60;;;;;;5095488;28;20213;-79
2024/01/29 09:39:56;;;;;;;17.87;8.57;;;2.10;98.50;;;;;;5095888;28;20173;-81
2024/01/29 09:42:28;;;;;;;14.73;8.90;;;2.10;98.50;;;;;;5094691;28;20639;-79
2024/01/29 09:44:54;;;;;;;12.70;9.30;;;2.20;98.40;;;;;;5093723;28;20170;-77
2024/01/29 09:47:20;;;;;;;14.90;8.40;;;2.30;98.10;;;;;;5093389;28;20178;-80
2024/01/29 09:49:47;;;;;;;13.30;8.40;;;2.40;97.90;;;;;;5094781;28;20167;-81
2024/01/29 09:52:13;;;;;;;14.27;7.53;;;2.50;97.80;;;;;;5094534;28;20849;-80
2024/01/29 09:54:44;;;;;;;13.70;8.43;;;2.60;97.30;;;;;;5093108;28;20254;-80
2024/01/29 09:57:12;;;;;;;16.10;8.33;;;2.60;97.20;;;;;;5093226;28;20284;-80
2024/01/29 09:59:41;;;;;;;16.37;8.23;;;2.50;96.90;;;;;;5093123;28;20182;-77
2024/01/29 10:02:08;;;;;;;14.50;8.33;;;2.50;97.30;;;;;;5093430;28;20263;-77
2024/01/29 10:04:34;;;;;;;14.97;7.90;;;2.70;97.50;;;;;;5096273;28;20170;-78
2024/01/29 10:07:00;;;;;;;15.20;8.60;;;2.70;97.30;;;;;;5092838;28;20257;-78
2024/01/29 10:09:26;;;;;;;16.20;8.27;;;2.80;97.20;;;;;;5091426;28;20256;-79
2024/01/29 10:11:52;;;;;;;18.97;8.77;;;2.70;97.10;;;;;;5091031;28;20174;-79
2024/01/29 10:14:18;;;;;;;15.10;8.60;;;2.60;97.40;;;;;;5092694;28;20184;-78
2024/01/29 10:16:44;;;;;;;9.93;7.27;;;2.60;97.20;;;;;;5094733;28;20236;-79
2024/01/29 10:19:12;;;;;;;13.50;7.33;;;2.80;97.20;;;;;;5092821;28;20237;-78
2024/01/29 10:21:45;;;;;;;11.53;6.63;;;2.80;96.80;;;;;;5092382;28;20307;-79
2024/01/29 10:24:15;;;;;;;8.60;6.20;;;3.00;97.00;;;;;;5093044;28;20222;-81
2024/01/29 10:26:42;;;;;;;10.50;6.63;;;3.10;96.60;;;;;;5092484;28;20178;-79
2024/01/29 10:29:09;;;;;;;10.13;6.10;;;3.20;96.40;;;;;;5092773;28;20174;-80
2024/01/29 10:31:36;;;;;;;7.93;5.40;;;3.30;96.10;;;;;;5092895;28;20525;-78
2024/01/29 10:34:03;;;;;;;9.40;4.50;;;3.30;96.00;;;;;;5096821;28;20227;-79
2024/01/29 10:36:29;;;;;;;8.47;5.33;;;3.40;95.70;;;;;;5096663;28;20217;-78
2024/01/29 10:38:57;;;;;;;10.00;5.17;;;3.40;95.90;;;;;;5100776;28;20271;-78
2024/01/29 10:41:25;;;;;;;8.77;5.10;;;3.50;95.70;;;;;;5098318;28;20674;-81
2024/01/29 10:43:51;;;;;;;11.27;5.30;;;3.60;95.90;;;;;;5097361;28;20178;-82
2024/01/29 10:46:19;;;;;;;9.20;5.13;;;3.70;95.60;;;;;;5097728;28;20174;-77
2024/01/29 10:48:46;;;;;;;9.93;5.20;;;3.70;95.70;;;;;;5097691;28;20173;-80
2024/01/29 10:51:16;;;;;;;11.00;5.90;;;3.80;95.50;;;;;;5097202;28;20271;-79
2024/01/29 10:53:43;;;;;;;13.83;5.77;;;3.70;95.60;;;;;;5096672;28;20171;-79
2024/01/29 10:56:09;;;;;;;33.93;8.83;;;3.80;95.70;;;;;;5095124;28;20680;-77
2024/01/29 10:58:36;;;;;;;11.33;6.27;;;3.80;95.70;;;;;;5096607;28;20178;-80
2024/01/29 11:01:03;;;;;;;13.20;5.57;;;3.90;96.70;;;;;;5098618;28;20174;-77
2024/01/29 11:03:30;;;;;;;8.53;5.60;;;3.90;96.30;;;;;;5096798;28;20215;-78
2024/01/29 11:06:08;;;;;;;12.13;5.90;;;4.00;96.20;;;;;;5096417;28;20173;-77
2024/01/29 11:08:39;;;;;;;12.23;6.03;;;4.10;96.10;;;;;;5096341;28;20522;-77
2024/01/29 11:11:06;;;;;;;7.73;5.50;;;4.20;96.20;;;;;;5096244;28;20153;-79
2024/01/29 11:13:33;;;;;;;8.77;5.60;;;4.20;95.70;;;;;;5096131;28;20173;-78
2024/01/29 11:15:59;;;;;;;7.43;4.90;;;4.20;95.60;;;;;;5094366;28;20315;-78
2024/01/29 11:18:25;;;;;;;5.97;4.83;;;4.30;95.70;;;;;;5095805;28;20178;-77
2024/01/29 11:20:51;;;;;;;8.27;4.70;;;4.30;95.80;;;;;;5098100;28;20181;-80
2024/01/29 11:23:21;;;;;;;9.63;4.80;;;4.30;95.90;;;;;;5098547;28;20215;-77
2024/01/29 11:25:49;;;;;;;7.43;4.37;;;4.40;95.70;;;;;;5100597;28;20254;-80
2024/01/29 11:28:15;;;;;;;6.00;4.67;;;4.40;95.50;;;;;;5102346;28;20634;-81
2024/01/29 11:30:52;;;;;;;5.97;4.50;;;4.50;95.50;;;;;;5097120;28;20728;-79
2024/01/29 11:33:19;;;;;;;9.17;5.93;;;4.50;95.70;;;;;;5099661;28;20160;-79
2024/01/29 11:35:46;;;;;;;5.73;4.33;;;4.60;95.70;;;;;;5098142;28;20610;-79
2024/01/29 11:38:13;;;;;;;8.13;5.47;;;4.60;95.80;;;;;;5104430;28;20182;-79
2024/01/29 11:40:43;;;;;;;10.97;4.80;;;4.60;95.60;;;;;;5107380;28;20185;-77
2024/01/29 11:43:09;;;;;;;8.77;5.07;;;4.60;95.40;;;;;;5109331;28;20173;-80
2024/01/29 11:45:36;;;;;;;13.73;5.90;;;4.60;95.60;;;;;;5104166;28;20248;-80
2024/01/29 11:48:08;;;;;;;9.83;5.30;;;4.70;95.90;;;;;;5101663;28;20191;-77
2024/01/29 11:50:34;;;;;;;6.23;5.00;;;4.70;95.50;;;;;;5097739;28;20156;-80
2024/01/29 11:52:59;;;;;;;11.13;5.77;;;4.70;95.50;;;;;;5095577;28;20176;-79
2024/01/29 11:55:25;;;;;;;9.47;5.20;;;4.60;95.60;;;;;;5095728;28;20196;-80
2024/01/29 11:57:53;;;;;;;6.87;5.57;;;4.70;95.60;;;;;;5095853;28;20189;-80
2024/01/29 12:00:19;;;;;;;9.70;5.47;;;4.70;95.40;;;;;;5095472;28;20641;-80
2024/01/29 12:02:50;;;;;;;6.90;4.97;;;4.80;95.30;;;;;;5095784;28;20575;-79
2024/01/29 12:05:17;;;;;;;6.90;5.63;;;4.80;95.30;;;;;;5099257;28;20197;-77
2024/01/29 12:07:45;;;;;;;9.03;5.63;;;4.80;95.40;;;;;;5101035;28;20597;-82
2024/01/29 12:10:11;;;;;;;11.97;5.50;;;4.80;95.50;;;;;;5096854;28;20686;-80
2024/01/29 12:12:37;;;;;;;8.07;4.83;;;4.90;95.70;;;;;;5095596;28;20397;-80
2024/01/29 12:15:04;;;;;;;7.13;5.10;;;5.30;95.70;;;;;;5095086;28;20665;-78
2024/01/29 12:17:30;;;;;;;6.83;4.67;;;5.10;95.20;;;;;;5095527;28;20244;-80
2024/01/29 12:19:56;;;;;;;5.30;4.80;;;5.20;95.10;;;;;;5111407;27;20189;-81
2024/01/29 12:22:23;;;;;;;5.07;4.57;;;5.10;95.00;;;;;;5094903;28;20546;-79
2024/01/29 12:24:49;;;;;;;6.97;4.67;;;5.20;94.90;;;;;;5093333;28;20243;-80
2024/01/29 12:27:15;;;;;;;8.03;5.33;;;6.00;95.50;;;;;;5098030;28;20167;-77
2024/01/29 12:29:40;;;;;;;9.07;5.57;;;5.20;95.10;;;;;;5095141;28;20533;-78
2024/01/29 12:32:14;;;;;;;7.43;5.53;;;5.20;95.50;;;;;;5095190;28;20169;-77
2024/01/29 12:34:50;;;;;;;9.43;5.27;;;5.20;95.00;;;;;;5093669;28;20200;-77
2024/01/29 12:37:23;;;;;;;7.40;5.40;;;5.20;94.90;;;;;;5093593;28;20281;-78
2024/01/29 12:39:53;;;;;;;11.17;5.57;;;5.20;95.20;;;;;;5094800;28;20151;-78
2024/01/29 12:42:22;;;;;;;9.70;5.37;;;5.20;95.00;;;;;;5094459;28;20576;-78